Denver, Colorado
Current Conditions -  °F | °C
As of 12:58 AM on Monday 22 Dec 2014 (Local Time) from KBKF Reporting Station
Broken Clouds Broken Clouds  
Wind Chill: 24°   Ceiling: 7500
Heat Index: 33°   Visibility: 10mi
Dew Point: 32°   Wind: 10mph
Humidity: 99%   Direction: 240°WSW
Pressure: 29.7"   Gusts: NA
Location:  39.74°N, 104.99°W
Report Text: KBKF 220758Z 24009KT 10SM FEW042 SCT060 BKN075 00/00 A2970 RMK AO2A SLP040 T00040002
Loading
Personal Weather Stations






























Interactive Weather Map New forecast layout! Learn more

10-Day Weather Forecast

Advertisements
Track Severe Weather on mobile